Time;durP1;ratioP1;P1;durP2;ratioP2;P2;SDS_P1;SDS_P2;PMS_P1;PMS_P2;Temp;Humidity;BMP_temperature;BMP_pressure;BME280_temperature;BME280_humidity;BME280_pressure;Samples;Min_cycle;Max_cycle;Signal;HPM_P1;HPM_P2
2023/12/16 00:00:45;;;;;;;20.50;7.15;;;;;;;6.93;100.00;102968.41;5023495;28;20053;-81
2023/12/16 00:03:12;;;;;;;25.27;7.00;;;;;;;6.88;100.00;102953.44;5021808;28;20619;-84
2023/12/16 00:05:39;;;;;;;22.25;8.88;;;;;;;6.83;100.00;102942.81;5022943;28;20080;-81
2023/12/16 00:08:06;;;;;;;22.02;8.27;;;;;;;6.79;100.00;102933.06;5002999;28;20490;-83
2023/12/16 00:10:32;;;;;;;23.67;7.88;;;;;;;6.79;100.00;102941.78;5000984;28;20153;-82
2023/12/16 00:12:59;;;;;;;21.25;7.15;;;;;;;6.78;100.00;102944.34;5019394;28;20573;-83
2023/12/16 00:15:25;;;;;;;26.65;9.23;;;;;;;6.78;100.00;102950.44;5006344;28;20130;-82
2023/12/16 00:17:52;;;;;;;18.55;6.00;;;;;;;6.77;100.00;102953.84;5007703;28;20518;-81
2023/12/16 00:20:22;;;;;;;24.35;7.88;;;;;;;6.67;100.00;102933.44;5023521;28;20127;-83
2023/12/16 00:22:48;;;;;;;21.70;7.35;;;;;;;6.72;100.00;102939.75;5006253;28;20045;-80
2023/12/16 00:25:15;;;;;;;26.50;8.55;;;;;;;6.71;100.00;102955.28;5003808;28;20468;-83
2023/12/16 00:27:42;;;;;;;21.73;6.80;;;;;;;6.72;100.00;102954.47;5006652;28;20053;-81
2023/12/16 00:30:11;;;;;;;24.48;8.65;;;;;;;6.72;100.00;102957.09;5005008;28;20045;-83
2023/12/16 00:32:39;;;;;;;23.17;7.22;;;;;;;6.72;100.00;102957.09;5015163;28;20081;-83
2023/12/16 00:35:07;;;;;;;22.92;6.35;;;;;;;6.68;100.00;102960.38;5004707;28;20068;-82
2023/12/16 00:37:35;;;;;;;16.73;7.80;;;;;;;6.67;100.00;102959.47;5025862;28;20049;-82
2023/12/16 00:40:02;;;;;;;16.02;6.78;;;;;;;6.67;100.00;102959.47;5023302;28;20067;-82
2023/12/16 00:42:30;;;;;;;20.77;6.68;;;;;;;6.67;100.00;102951.66;5000524;28;20045;-81
2023/12/16 00:45:00;;;;;;;18.48;6.70;;;;;;;6.67;100.00;102954.25;5005615;28;20583;-82
2023/12/16 00:47:28;;;;;;;16.85;6.78;;;;;;;6.67;100.00;102949.06;5011959;28;20050;-81
2023/12/16 00:49:55;;;;;;;15.65;5.97;;;;;;;6.67;100.00;102949.06;5011628;28;20947;-82
2023/12/16 00:52:22;;;;;;;15.93;6.35;;;;;;;6.67;100.00;102953.38;5012418;28;20049;-82
2023/12/16 00:54:49;;;;;;;15.50;5.78;;;;;;;6.62;100.00;102948.88;5010173;28;20087;-83
2023/12/16 00:57:15;;;;;;;21.85;7.22;;;;;;;6.59;100.00;102953.91;5009733;28;20056;-83
2023/12/16 00:59:42;;;;;;;23.30;6.82;;;;;;;6.61;100.00;102948.81;5025345;28;20100;-83
2023/12/16 01:02:09;;;;;;;25.02;5.90;;;;;;;6.58;100.00;102953.84;5008475;28;20050;-81
2023/12/16 01:04:36;;;;;;;15.90;6.65;;;;;;;6.52;100.00;102957.09;5027299;28;20041;-82
2023/12/16 01:07:03;;;;;;;22.33;7.30;;;;;;;6.51;100.00;102957.91;5030557;28;20059;-81
2023/12/16 01:09:29;;;;;;;14.00;5.45;;;;;;;6.49;100.00;102956.03;5009629;28;20058;-83
2023/12/16 01:11:56;;;;;;;13.25;5.55;;;;;;;6.50;100.00;102947.44;5033429;28;20638;-81
2023/12/16 01:14:23;;;;;;;18.45;5.60;;;;;;;6.55;100.00;102952.00;5013806;28;20057;-82
2023/12/16 01:16:49;;;;;;;16.52;6.03;;;;;;;6.59;100.00;102948.72;5014929;28;20128;-82
2023/12/16 01:19:16;;;;;;;11.88;4.80;;;;;;;6.61;100.00;102946.19;5031229;28;20140;-81
2023/12/16 01:21:44;;;;;;;9.27;4.50;;;;;;;6.69;100.00;102952.63;5033595;28;20041;-81
2023/12/16 01:24:14;;;;;;;18.08;5.80;;;;;;;6.72;100.00;102957.97;5026256;28;20056;-82
2023/12/16 01:26:40;;;;;;;17.98;5.38;;;;;;;6.74;100.00;102958.00;5026247;28;20494;-83
2023/12/16 01:29:07;;;;;;;14.73;5.20;;;;;;;6.76;100.00;102959.88;5016437;28;20310;-81
2023/12/16 01:31:33;;;;;;;17.23;4.18;;;;;;;6.83;100.00;102962.75;5027677;28;20924;-82
2023/12/16 01:34:00;;;;;;;11.75;3.90;;;;;;;6.83;100.00;102957.53;5034537;28;20409;-80
2023/12/16 01:36:26;;;;;;;12.00;4.03;;;;;;;6.87;100.00;102962.97;5010746;28;20087;-83
2023/12/16 01:38:53;;;;;;;10.80;5.13;;;;;;;6.93;100.00;102963.19;5028360;28;20049;-83
2023/12/16 01:41:19;;;;;;;21.05;5.70;;;;;;;6.94;100.00;102957.19;5014023;28;20043;-82
2023/12/16 01:43:46;;;;;;;25.38;4.60;;;;;;;6.96;100.00;102957.25;5011191;28;20054;-83
2023/12/16 01:46:16;;;;;;;16.13;4.65;;;;;;;6.99;100.00;102966.91;5012629;28;20069;-81
2023/12/16 01:48:43;;;;;;;11.30;4.57;;;;;;;7.03;100.00;102968.84;5012086;28;20052;-82
2023/12/16 01:51:10;;;;;;;13.63;3.78;;;;;;;7.04;100.00;102975.81;5013255;28;20049;-82
2023/12/16 01:53:36;;;;;;;12.15;3.70;;;;;;;7.07;100.00;102971.63;5009174;28;20046;-81
2023/12/16 01:56:03;;;;;;;14.60;3.25;;;;;;;7.08;100.00;102967.31;5033548;28;20052;-82
2023/12/16 01:58:30;;;;;;;10.25;3.22;;;;;;;7.09;100.00;102967.38;5011995;28;20097;-82
2023/12/16 02:01:00;;;;;;;8.95;2.78;;;;;;;7.11;100.00;102964.84;5012424;28;20478;-83
2023/12/16 02:03:28;;;;;;;10.52;3.33;;;;;;;7.12;100.00;102970.09;5012006;28;20053;-83
2023/12/16 02:05:57;;;;;;;6.53;3.08;;;;;;;7.18;100.00;102977.28;5028927;28;20045;-83
2023/12/16 02:08:24;;;;;;;14.38;4.28;;;;;;;7.21;100.00;102981.72;5010967;28;20045;-84
2023/12/16 02:10:51;;;;;;;6.78;2.65;;;;;;;7.19;100.00;102975.59;5024665;28;20064;-81
2023/12/16 02:13:18;;;;;;;9.15;3.05;;;;;;;7.20;100.00;102973.03;5025627;28;20045;-82
2023/12/16 02:15:45;;;;;;;10.60;2.75;;;;;;;7.21;100.00;102969.63;5005991;28;20038;-82
2023/12/16 02:18:12;;;;;;;14.00;2.53;;;;;;;7.20;100.00;102975.63;5010201;28;20071;-83
2023/12/16 02:20:39;;;;;;;12.48;4.40;;;;;;;7.24;100.00;102977.53;5009384;28;20091;-82
2023/12/16 02:23:12;;;;;;;5.15;2.90;;;;;;;7.22;100.00;102976.63;5005738;28;20506;-82
2023/12/16 02:25:39;;;;;;;14.43;4.22;;;;;;;7.25;100.00;102981.94;5024551;28;20041;-82
2023/12/16 02:28:08;;;;;;;5.78;3.05;;;;;;;7.26;100.00;102978.50;5022686;28;20045;-81
2023/12/16 02:30:35;;;;;;;15.10;2.50;;;;;;;7.26;100.00;102982.81;5025921;28;20553;-81
2023/12/16 02:33:01;;;;;;;8.98;3.22;;;;;;;7.25;100.00;102979.34;5032147;28;20114;-82
2023/12/16 02:35:28;;;;;;;8.02;2.38;;;;;;;7.29;100.00;102970.81;5004342;28;20510;-83
2023/12/16 02:37:54;;;;;;;5.00;3.50;;;;;;;7.28;100.00;102970.75;5011198;28;20057;-83
2023/12/16 02:40:21;;;;;;;8.35;2.45;;;;;;;7.31;100.00;102964.78;5029703;28;20364;-83
2023/12/16 02:42:47;;;;;;;14.38;3.20;;;;;;;7.27;100.00;102963.75;5027493;28;20104;-82
2023/12/16 02:45:14;;;;;;;10.18;3.08;;;;;;;7.28;100.00;102971.63;5008610;28;20056;-82
2023/12/16 02:47:41;;;;;;;10.88;2.67;;;;;;;7.24;100.00;102969.72;5007148;28;20046;-83
2023/12/16 02:50:08;;;;;;;6.18;2.17;;;;;;;7.27;100.00;102982.00;5028107;28;20105;-83
2023/12/16 02:52:35;;;;;;;9.90;2.60;;;;;;;7.28;100.00;102976.84;5014271;28;20054;-83
2023/12/16 02:55:02;;;;;;;7.90;2.53;;;;;;;7.29;100.00;102977.75;5029227;28;20053;-82
2023/12/16 02:57:28;;;;;;;7.25;2.38;;;;;;;7.33;100.00;102981.38;5017454;28;20045;-83
2023/12/16 02:59:55;;;;;;;4.70;2.38;;;;;;;7.27;100.00;102975.09;5031968;28;20045;-83
2023/12/16 03:02:22;;;;;;;4.35;2.75;;;;;;;7.29;100.00;102977.75;5018209;28;20045;-82
2023/12/16 03:04:48;;;;;;;13.25;2.45;;;;;;;7.24;100.00;102981.88;5014539;28;20053;-82
2023/12/16 03:07:15;;;;;;;12.00;2.78;;;;;;;7.29;100.00;102986.44;5018926;28;20046;-81
2023/12/16 03:09:44;;;;;;;11.65;3.10;;;;;;;7.31;100.00;102996.06;5017864;28;20557;-81
2023/12/16 03:12:11;;;;;;;11.48;2.63;;;;;;;7.28;100.00;102986.38;5011006;28;20789;-81
2023/12/16 03:14:39;;;;;;;11.75;2.40;;;;;;;7.31;100.00;102985.63;5024147;28;20059;-82
2023/12/16 03:17:06;;;;;;;5.40;1.80;;;;;;;7.27;100.00;102992.41;5017249;28;20052;-82
2023/12/16 03:19:33;;;;;;;16.10;3.83;;;;;;;7.29;100.00;102994.25;5016779;28;20049;-82
2023/12/16 03:21:59;;;;;;;7.28;2.05;;;;;;;7.29;100.00;102985.56;5028472;28;20045;-82
2023/12/16 03:24:26;;;;;;;6.22;2.42;;;;;;;7.27;100.00;102990.72;5028264;28;20598;-83
2023/12/16 03:26:52;;;;;;;7.38;2.45;;;;;;;7.33;98.81;102994.41;5029167;28;20041;-82
2023/12/16 03:29:19;;;;;;;11.32;2.88;;;;;;;7.32;97.94;102992.63;5028585;28;20068;-82
2023/12/16 03:31:45;;;;;;;11.35;2.13;;;;;;;7.30;97.62;102982.16;5011406;28;20189;-82
2023/12/16 03:34:11;;;;;;;10.18;2.50;;;;;;;7.32;96.96;102984.81;5008247;28;20148;-81
2023/12/16 03:36:38;;;;;;;13.77;4.15;;;;;;;7.29;96.18;102976.03;5016324;28;20129;-81
2023/12/16 03:39:04;;;;;;;12.43;2.88;;;;;;;7.34;95.51;102981.44;5017813;28;20041;-83
2023/12/16 03:41:31;;;;;;;9.95;1.92;;;;;;;7.31;94.83;102978.69;5015212;28;20045;-82
2023/12/16 03:43:58;;;;;;;10.13;2.20;;;;;;;7.32;94.66;102984.81;5013247;28;20041;-83
2023/12/16 03:46:26;;;;;;;7.50;3.03;;;;;;;7.33;93.62;102976.19;5014844;28;20498;-82
2023/12/16 03:48:53;;;;;;;5.25;1.77;;;;;;;7.34;92.73;102968.41;5023628;28;20050;-81
2023/12/16 03:51:22;;;;;;;7.85;2.00;;;;;;;7.35;92.37;102979.72;5032981;28;20057;-81
2023/12/16 03:53:51;;;;;;;6.10;1.65;;;;;;;7.38;92.39;102974.63;5016601;28;20046;-82
2023/12/16 03:56:19;;;;;;;3.60;1.42;;;;;;;7.36;90.99;102973.69;5035812;28;20044;-82
2023/12/16 03:58:46;;;;;;;6.75;1.80;;;;;;;7.39;91.43;102974.72;5018512;28;20795;-83
2023/12/16 04:01:14;;;;;;;5.88;2.00;;;;;;;7.35;90.69;102967.56;5019084;28;20500;-82
2023/12/16 04:03:41;;;;;;;4.95;1.42;;;;;;;7.35;90.42;102978.00;5011239;28;20057;-83
2023/12/16 04:06:15;;;;;;;8.13;1.60;;;;;;;7.37;89.74;102976.34;5026156;28;20049;-81
2023/12/16 04:08:42;;;;;;;6.85;2.05;;;;;;;7.36;89.74;102973.69;5028425;28;20530;-81
2023/12/16 04:11:09;;;;;;;11.90;2.38;;;;;;;7.35;88.92;102972.78;5031298;28;20037;-82
2023/12/16 04:13:38;;;;;;;7.63;1.65;;;;;;;7.35;87.91;102972.78;5015172;28;20054;-83
2023/12/16 04:16:06;;;;;;;7.18;1.45;;;;;;;7.39;87.20;102971.19;5030512;28;20166;-83
2023/12/16 04:18:33;;;;;;;9.35;2.15;;;;;;;7.40;86.44;102976.47;5014110;28;20065;-83
2023/12/16 04:21:01;;;;;;;9.82;2.10;;;;;;;7.41;86.57;102969.56;5009886;28;20057;-82
2023/12/16 04:23:29;;;;;;;8.93;2.00;;;;;;;7.38;86.68;102961.59;5026355;28;20132;-81
2023/12/16 04:25:56;;;;;;;7.60;1.50;;;;;;;7.37;86.33;102959.84;5030157;28;20042;-81
2023/12/16 04:28:22;;;;;;;8.55;1.70;;;;;;;7.38;85.96;102956.38;5009200;28;20144;-82
2023/12/16 04:30:57;;;;;;;5.15;1.55;;;;;;;7.36;86.40;102945.03;5014482;28;20068;-82
2023/12/16 04:33:24;;;;;;;3.28;1.95;;;;;;;7.37;86.78;102952.91;5032856;28;21074;-83
2023/12/16 04:35:50;;;;;;;7.65;1.48;;;;;;;7.32;86.58;102948.34;5006346;28;20379;-81
2023/12/16 04:38:17;;;;;;;11.70;2.00;;;;;;;7.33;86.15;102944.91;5010545;28;20050;-81
2023/12/16 04:40:44;;;;;;;7.22;1.70;;;;;;;7.34;86.52;102944.97;5009526;28;20041;-83
2023/12/16 04:43:10;;;;;;;7.55;2.30;;;;;;;7.28;86.49;102950.78;5011359;28;20084;-83
2023/12/16 04:45:40;;;;;;;13.75;1.75;;;;;;;7.33;86.27;102947.50;5027419;28;20038;-83
2023/12/16 04:48:07;;;;;;;8.10;2.00;;;;;;;7.33;85.95;102953.59;5029833;28;20205;-81
2023/12/16 04:50:33;;;;;;;16.55;2.72;;;;;;;7.33;86.00;102953.59;5028945;28;20049;-83
2023/12/16 04:53:00;;;;;;;13.95;1.88;;;;;;;7.33;86.24;102963.16;5025625;28;20045;-83
2023/12/16 04:55:27;;;;;;;12.65;2.03;;;;;;;7.32;85.98;102969.19;5029506;28;20048;-80
2023/12/16 04:57:53;;;;;;;8.80;2.10;;;;;;;7.32;85.99;102975.25;5009030;28;20041;-83
2023/12/16 05:00:20;;;;;;;7.32;1.95;;;;;;;7.36;85.12;102981.50;5017203;28;20049;-81
2023/12/16 05:02:47;;;;;;;6.32;1.73;;;;;;;7.36;85.54;102986.72;5029980;28;20045;-82
2023/12/16 05:05:13;;;;;;;7.53;2.97;;;;;;;7.37;85.28;102994.59;5025928;28;20479;-81
2023/12/16 05:07:42;;;;;;;4.70;1.92;;;;;;;7.38;85.04;102988.56;5014546;28;20119;-83
2023/12/16 05:10:10;;;;;;;10.73;2.00;;;;;;;7.35;84.81;102993.63;5008827;28;20078;-81
2023/12/16 05:12:41;;;;;;;8.27;1.85;;;;;;;7.41;84.76;102999.09;5032746;28;20045;-81
2023/12/16 05:15:08;;;;;;;7.22;3.67;;;;;;;7.41;85.12;102995.63;5014338;28;20083;-82
2023/12/16 05:17:35;;;;;;;7.47;1.73;;;;;;;7.39;85.02;103003.38;5012396;28;20053;-81
2023/12/16 05:20:04;;;;;;;12.18;2.22;;;;;;;7.35;85.76;103010.97;5014726;28;20045;-81
2023/12/16 05:22:33;;;;;;;10.88;2.33;;;;;;;7.35;86.47;103010.97;5012702;28;20049;-81
2023/12/16 05:25:03;;;;;;;8.13;2.13;;;;;;;7.31;86.75;103012.56;5028138;28;20100;-82
2023/12/16 05:27:33;;;;;;;14.25;1.90;;;;;;;7.31;87.17;103015.16;5017427;28;20432;-83
2023/12/16 05:30:00;;;;;;;14.57;3.05;;;;;;;7.28;87.64;103009.84;5015404;28;20053;-83
2023/12/16 05:32:27;;;;;;;8.82;2.53;;;;;;;7.27;88.45;103011.56;5030162;28;20195;-83
2023/12/16 05:34:55;;;;;;;11.55;3.45;;;;;;;7.24;88.73;103018.34;5031880;28;20079;-83
2023/12/16 05:37:22;;;;;;;8.68;2.97;;;;;;;7.21;89.31;103013.00;5029915;28;20110;-81
2023/12/16 05:39:49;;;;;;;12.23;2.70;;;;;;;7.19;89.46;103006.84;5015824;28;20068;-82
2023/12/16 05:42:15;;;;;;;11.80;3.10;;;;;;;7.18;89.96;103008.53;5015866;28;20151;-80
2023/12/16 05:44:42;;;;;;;6.15;1.98;;;;;;;7.15;90.51;103010.16;5012968;28;20057;-81
2023/12/16 05:47:09;;;;;;;14.35;4.05;;;;;;;7.17;90.33;103018.91;5014307;28;20072;-82
2023/12/16 05:49:36;;;;;;;7.90;3.15;;;;;;;7.13;90.48;103017.88;5027164;28;20053;-81
2023/12/16 05:52:03;;;;;;;9.52;3.08;;;;;;;7.12;90.92;103021.31;5028997;28;20045;-84
2023/12/16 05:54:30;;;;;;;9.93;2.80;;;;;;;7.12;91.28;103022.19;4998147;28;20546;-81
2023/12/16 05:56:56;;;;;;;8.95;3.33;;;;;;;7.15;90.96;103015.34;5017694;28;20053;-81
2023/12/16 05:59:24;;;;;;;11.15;2.72;;;;;;;7.14;91.09;103018.78;5012215;28;20052;-81
2023/12/16 06:01:51;;;;;;;15.95;3.85;;;;;;;7.10;91.45;103003.03;5013179;28;20056;-81
2023/12/16 06:04:19;;;;;;;6.55;2.40;;;;;;;7.08;91.57;103001.19;5011166;28;20129;-81
2023/12/16 06:06:46;;;;;;;12.13;3.25;;;;;;;7.12;91.47;103017.00;5026980;28;20437;-80
2023/12/16 06:09:13;;;;;;;5.57;2.85;;;;;;;7.11;91.44;103014.31;5011043;28;20566;-82
2023/12/16 06:11:39;;;;;;;13.63;2.70;;;;;;;7.08;91.61;103012.47;5018788;28;20059;-81
2023/12/16 06:14:06;;;;;;;11.77;2.80;;;;;;;7.07;91.73;103005.47;5004429;28;20140;-82
2023/12/16 06:16:34;;;;;;;7.80;3.08;;;;;;;7.04;91.59;103023.59;5008866;28;20132;-82
2023/12/16 06:19:02;;;;;;;9.45;2.72;;;;;;;7.08;91.48;103019.41;5013462;28;20052;-81
2023/12/16 06:21:29;;;;;;;7.35;3.10;;;;;;;7.05;91.91;103014.97;5031455;28;20041;-83
2023/12/16 06:23:58;;;;;;;12.20;3.17;;;;;;;7.02;92.00;103019.13;5030974;28;20038;-83
2023/12/16 06:26:24;;;;;;;7.82;2.70;;;;;;;7.02;91.47;103032.16;5012472;28;20156;-83
2023/12/16 06:28:51;;;;;;;13.20;3.40;;;;;;;7.04;91.19;103033.09;5008332;28;20071;-82
2023/12/16 06:31:18;;;;;;;10.68;2.90;;;;;;;7.05;91.49;103047.91;5011653;28;20071;-82
2023/12/16 06:33:45;;;;;;;10.27;3.97;;;;;;;7.06;91.09;103044.50;5010156;28;20037;-83
2023/12/16 06:36:12;;;;;;;11.73;2.80;;;;;;;7.04;90.83;103048.72;5023881;28;20043;-82
2023/12/16 06:38:39;;;;;;;12.93;3.08;;;;;;;7.04;90.66;103054.84;5013508;28;20046;-81
2023/12/16 06:41:05;;;;;;;12.35;2.90;;;;;;;7.07;90.44;103052.34;5009022;28;20057;-82
2023/12/16 06:43:32;;;;;;;9.80;3.03;;;;;;;7.09;90.32;103048.13;5038907;28;20144;-81
2023/12/16 06:45:59;;;;;;;7.35;2.58;;;;;;;7.14;89.97;103050.03;5006167;28;20096;-82
2023/12/16 06:48:25;;;;;;;7.40;2.90;;;;;;;7.15;89.91;103057.91;5010322;28;20069;-81
2023/12/16 06:50:57;;;;;;;10.88;2.45;;;;;;;7.16;89.58;103058.78;5010327;28;20059;-83
2023/12/16 06:53:23;;;;;;;7.55;3.33;;;;;;;7.13;89.28;103059.53;5009281;28;20048;-81
2023/12/16 06:55:51;;;;;;;13.02;4.00;;;;;;;7.10;89.32;103059.41;5009638;28;20069;-82
2023/12/16 06:58:17;;;;;;;9.23;2.72;;;;;;;7.15;89.19;103062.25;5013480;28;20470;-82
2023/12/16 07:00:44;;;;;;;10.80;2.83;;;;;;;7.11;88.66;103064.69;5009625;28;20053;-82
2023/12/16 07:03:11;;;;;;;11.23;3.03;;;;;;;7.13;88.92;103067.34;5006483;28;20056;-82
2023/12/16 07:05:37;;;;;;;7.35;2.97;;;;;;;7.08;88.89;103059.34;5024788;28;20050;-82
2023/12/16 07:08:04;;;;;;;15.70;4.00;;;;;;;7.09;88.68;103065.44;5015303;28;20530;-82
2023/12/16 07:10:31;;;;;;;8.32;2.03;;;;;;;7.10;88.74;103054.22;5025344;28;20136;-82
2023/12/16 07:12:59;;;;;;;7.20;3.10;;;;;;;7.08;88.65;103054.16;5011100;28;20095;-82
2023/12/16 07:15:26;;;;;;;7.47;2.88;;;;;;;7.11;88.42;103048.19;5029080;28;20049;-82
2023/12/16 07:17:52;;;;;;;11.18;2.75;;;;;;;7.11;87.94;103048.19;5009093;28;20105;-81
2023/12/16 07:20:18;;;;;;;13.30;3.70;;;;;;;7.06;88.62;103050.56;5007558;28;20042;-81
2023/12/16 07:22:45;;;;;;;7.43;2.80;;;;;;;6.95;88.61;103052.72;5004373;28;20057;-82
2023/12/16 07:25:11;;;;;;;10.18;2.75;;;;;;;6.88;89.36;103061.09;5007592;28;20053;-82
2023/12/16 07:27:38;;;;;;;12.40;3.08;;;;;;;6.83;89.39;103051.25;5009210;28;20049;-82
2023/12/16 07:30:06;;;;;;;10.45;4.13;;;;;;;6.76;89.89;103050.09;5027063;28;20057;-83
2023/12/16 07:32:32;;;;;;;10.57;2.20;;;;;;;6.74;89.98;103041.31;5024462;28;20440;-82
2023/12/16 07:34:59;;;;;;;10.95;2.95;;;;;;;6.69;90.02;103043.72;5017543;28;20188;-80
2023/12/16 07:37:25;;;;;;;10.05;2.60;;;;;;;6.70;90.28;103044.59;5009353;28;20052;-82
2023/12/16 07:39:52;;;;;;;5.97;2.00;;;;;;;6.70;90.60;103055.94;5029804;28;20544;-82
2023/12/16 07:42:18;;;;;;;13.98;3.42;;;;;;;6.66;90.30;103045.28;5028513;28;20040;-83
2023/12/16 07:44:45;;;;;;;10.20;3.63;;;;;;;6.67;90.36;103044.47;5010824;28;20057;-83
2023/12/16 07:47:11;;;;;;;15.60;2.60;;;;;;;6.64;90.26;103052.16;5016177;28;20068;-82
2023/12/16 07:49:38;;;;;;;9.75;2.88;;;;;;;6.63;90.03;103048.66;5016909;28;20653;-83
2023/12/16 07:52:05;;;;;;;14.73;2.90;;;;;;;6.66;90.00;103055.72;5017053;28;20041;-82
2023/12/16 07:54:33;;;;;;;10.15;2.95;;;;;;;6.64;90.30;103054.75;5030576;28;20077;-82
2023/12/16 07:57:06;;;;;;;15.25;3.60;;;;;;;6.64;90.27;103052.16;5013511;28;20542;-82
2023/12/16 07:59:33;;;;;;;7.15;2.50;;;;;;;6.60;90.29;103045.91;5028941;28;20045;-81
2023/12/16 08:02:03;;;;;;;6.75;3.03;;;;;;;6.57;90.70;103038.84;5024528;28;20049;-80
2023/12/16 08:04:30;;;;;;;11.77;3.13;;;;;;;6.58;90.83;103038.03;5015542;28;20148;-81
2023/12/16 08:06:57;;;;;;;18.10;4.25;;;;;;;6.61;90.67;103037.28;5014009;28;20050;-82
2023/12/16 08:09:24;;;;;;;9.40;2.75;;;;;;;6.61;90.58;103035.56;5027403;28;20049;-82
2023/12/16 08:11:58;;;;;;;11.27;3.47;;;;;;;6.65;90.16;103038.28;5010959;28;20045;-83
2023/12/16 08:14:32;;;;;;;10.80;2.83;;;;;;;6.73;90.15;103034.34;5017890;28;20483;-81
2023/12/16 08:16:58;;;;;;;7.97;3.22;;;;;;;6.75;89.78;103028.41;5013076;28;20100;-82
2023/12/16 08:19:25;;;;;;;11.07;2.63;;;;;;;6.86;89.25;103026.25;5017521;28;20061;-83
2023/12/16 08:21:51;;;;;;;10.38;2.97;;;;;;;6.98;88.84;103031.13;5018085;28;20046;-83
2023/12/16 08:24:18;;;;;;;10.13;3.65;;;;;;;7.12;88.11;103034.34;5014874;28;20484;-82
2023/12/16 08:26:49;;;;;;;7.60;3.00;;;;;;;7.19;87.80;103033.78;5013501;28;20049;-81
2023/12/16 08:29:19;;;;;;;9.50;3.33;;;;;;;7.19;87.64;103028.56;5031701;28;20099;-83
2023/12/16 08:31:48;;;;;;;16.88;3.60;;;;;;;7.27;87.42;103039.31;5016200;28;20041;-83
2023/12/16 08:34:15;;;;;;;14.20;4.72;;;;;;;7.38;86.69;103038.06;5031252;28;20219;-82
2023/12/16 08:36:45;;;;;;;13.38;4.18;;;;;;;7.49;86.01;103041.13;5014012;28;20049;-83
2023/12/16 08:39:17;;;;;;;6.40;2.83;;;;;;;7.51;86.11;103038.56;5011149;28;20064;-83
2023/12/16 08:41:43;;;;;;;11.45;3.25;;;;;;;7.75;85.38;103056.97;5019713;28;20108;-83
2023/12/16 08:44:10;;;;;;;16.73;4.38;;;;;;;7.82;84.66;103058.09;5011118;28;20059;-83
2023/12/16 08:46:51;;;;;;;10.70;3.92;;;;;;;7.81;84.33;103032.84;5015177;28;20068;-83
2023/12/16 08:49:35;;;;;;;13.40;3.42;;;;;;;7.83;84.60;103039.91;5026918;28;20025;-81
2023/12/16 08:52:13;;;;;;;15.90;3.58;;;;;;;7.83;84.77;103031.22;5039278;28;20033;-83
2023/12/16 08:54:52;;;;;;;10.80;4.07;;;;;;;7.82;84.83;103032.91;5032444;28;20050;-83
2023/12/16 08:57:26;;;;;;;6.82;2.60;;;;;;;7.80;84.99;103036.31;5052088;28;20009;-82
2023/12/16 08:59:59;;;;;;;10.00;3.00;;;;;;;7.76;85.70;103033.56;5053373;28;20048;-82
2023/12/16 09:02:31;;;;;;;;;;;;;;;7.94;85.25;103032.53;5035517;28;20332;-84
2023/12/16 09:04:59;;;;;;;12.77;2.80;;;;;;;8.02;84.63;103030.25;5010441;28;20382;-82
2023/12/16 09:07:28;;;;;;;12.50;3.20;;;;;;;8.10;84.09;103021.88;5012337;28;20065;-83
2023/12/16 09:09:55;;;;;;;8.88;3.03;;;;;;;8.27;83.77;103025.13;5010914;28;20059;-83
2023/12/16 09:12:21;;;;;;;8.75;2.17;;;;;;;8.35;83.38;103037.59;5029620;28;20466;-82
2023/12/16 09:14:50;;;;;;;9.23;2.90;;;;;;;8.31;83.25;103040.94;5030115;28;20041;-84
2023/12/16 09:17:17;;;;;;;9.75;2.72;;;;;;;8.46;82.78;103028.50;5014968;28;20037;-83
2023/12/16 09:19:45;;;;;;;8.27;3.72;;;;;;;8.39;83.31;103016.88;5028566;28;20053;-84
2023/12/16 09:22:12;;;;;;;11.48;4.57;;;;;;;8.49;82.95;103030.34;5018300;28;20041;-83
2023/12/16 09:24:42;;;;;;;9.07;2.63;;;;;;;8.43;83.04;103036.19;5013330;28;20773;-82
2023/12/16 09:27:10;;;;;;;12.68;2.88;;;;;;;8.46;83.40;103044.19;5025831;28;20045;-83
2023/12/16 09:29:38;;;;;;;25.88;4.97;;;;;;;8.38;84.28;103048.16;5014495;28;20042;-84
2023/12/16 09:32:07;;;;;;;10.27;2.83;;;;;;;8.41;84.56;103053.50;5013495;28;20057;-83
2023/12/16 09:34:34;;;;;;;13.18;3.00;;;;;;;8.46;84.42;103064.16;5029587;28;20511;-84
2023/12/16 09:37:01;;;;;;;15.82;3.58;;;;;;;8.49;84.48;103061.69;5027076;28;20044;-83
2023/12/16 09:39:28;;;;;;;8.38;3.38;;;;;;;8.49;84.63;103057.34;5008179;28;20129;-84
2023/12/16 09:41:57;;;;;;;8.38;2.85;;;;;;;8.39;85.28;103056.03;5019889;28;20041;-82
2023/12/16 09:44:25;;;;;;;8.38;3.00;;;;;;;8.45;85.36;103047.56;5023686;28;20088;-83
2023/12/16 09:46:59;;;;;;;10.30;3.78;;;;;;;8.50;85.61;103038.25;5033866;28;20034;-83
2023/12/16 09:49:28;;;;;;;;;;;;;;;8.43;85.79;103052.75;5041403;28;20211;-83
2023/12/16 09:51:54;;;;;;;11.90;3.60;;;;;;;8.42;86.08;103047.44;5013926;28;19921;-82
2023/12/16 09:54:24;;;;;;;11.45;4.05;;;;;;;8.41;86.00;103050.91;5037121;28;20099;-84
2023/12/16 09:56:53;;;;;;;17.00;3.47;;;;;;;8.38;86.40;103051.69;5020306;28;20061;-83
2023/12/16 09:59:24;;;;;;;10.20;2.65;;;;;;;8.45;86.84;103047.56;5016965;28;20053;-83
2023/12/16 10:01:59;;;;;;;9.35;3.88;;;;;;;8.47;86.39;103050.28;5034439;28;20049;-83
2023/12/16 10:04:27;;;;;;;16.02;3.70;;;;;;;8.45;86.62;103047.56;5003354;28;20148;-81
2023/12/16 10:06:54;;;;;;;19.27;3.75;;;;;;;8.42;87.03;103055.25;5010882;28;20049;-83
2023/12/16 10:09:21;;;;;;;13.52;4.15;;;;;;;8.38;87.33;103050.75;5011797;28;20068;-81
2023/12/16 10:11:52;;;;;;;6.03;2.75;;;;;;;8.36;87.59;103050.72;5007793;28;20079;-81
2023/12/16 10:14:18;;;;;;;19.65;4.30;;;;;;;8.39;87.55;103048.22;5021671;28;20140;-83
2023/12/16 10:16:47;;;;;;;12.27;4.00;;;;;;;8.41;87.33;103032.63;5026408;28;20117;-82
2023/12/16 10:19:14;;;;;;;17.50;4.13;;;;;;;8.44;87.11;103036.22;5014807;28;20064;-84
2023/12/16 10:21:41;;;;;;;17.05;3.33;;;;;;;8.47;87.41;103021.56;5023666;28;20056;-83
2023/12/16 10:24:09;;;;;;;15.63;3.50;;;;;;;8.51;87.18;103016.50;5019692;28;20092;-83
2023/12/16 10:26:43;;;;;;;17.17;3.63;;;;;;;8.57;86.55;103015.84;5008162;28;20058;-82
2023/12/16 10:29:11;;;;;;;;;;;;;;;8.54;86.74;103000.06;4988654;28;20072;-83
2023/12/16 10:31:40;;;;;;;17.63;2.92;;;;;;;8.53;86.73;103009.63;5026478;28;19924;-84
2023/12/16 10:34:08;;;;;;;42.05;11.52;;;;;;;8.72;86.23;103012.91;5025363;28;20060;-83
2023/12/16 10:36:35;;;;;;;18.98;3.65;;;;;;;8.80;85.45;103000.13;5000660;28;20056;-84
2023/12/16 10:39:02;;;;;;;17.08;3.35;;;;;;;8.82;85.32;102995.88;5008787;28;20057;-81
2023/12/16 10:41:30;;;;;;;10.45;3.40;;;;;;;8.88;84.55;102994.34;5003885;28;20042;-84
2023/12/16 10:43:57;;;;;;;10.98;3.38;;;;;;;8.90;84.79;102997.03;5017719;28;20046;-83
2023/12/16 10:49:34;;;;;;;6.53;2.97;;;;;;;8.89;84.22;102982.19;5017968;28;20373;-83
2023/12/16 10:52:13;;;;;;;10.98;4.45;;;;;;;8.83;84.79;102980.25;5014659;28;20034;-81
2023/12/16 10:54:55;;;;;;;15.93;3.33;;;;;;;8.90;84.90;102974.41;5009026;28;20053;-81
2023/12/16 10:57:50;;;;;;;15.27;4.03;;;;;;;8.92;84.33;102964.03;5012349;28;20057;-83
2023/12/16 11:00:25;;;;;;;4.88;2.70;;;;;;;8.87;84.69;102950.78;5014719;28;20041;-84
2023/12/16 11:02:54;;;;;;;10.43;3.05;;;;;;;8.96;84.24;102949.31;5011644;28;20146;-83
2023/12/16 11:05:27;;;;;;;13.15;3.17;;;;;;;8.97;84.24;102940.66;5026363;28;20084;-83
2023/12/16 11:08:01;;;;;;;16.63;4.00;;;;;;;8.96;84.18;102944.09;5012255;28;20038;-82
2023/12/16 11:10:31;;;;;;;9.70;3.55;;;;;;;8.93;84.19;102934.47;5025573;28;20049;-83
2023/12/16 11:13:05;;;;;;;13.48;2.75;;;;;;;8.93;84.06;102940.56;5004503;28;20176;-83
2023/12/16 11:15:38;;;;;;;15.00;4.03;;;;;;;8.91;84.49;102938.72;5018562;28;20053;-81
2023/12/16 11:18:26;;;;;;;12.63;3.30;;;;;;;9.00;84.23;102939.03;5028057;28;20041;-82
2023/12/16 11:21:03;;;;;;;9.77;3.22;;;;;;;9.02;84.32;102928.63;5029845;28;20135;-82
2023/12/16 11:23:36;;;;;;;17.02;3.15;;;;;;;9.06;83.99;102931.41;5019748;28;20103;-83
2023/12/16 11:26:03;;;;;;;24.80;3.83;;;;;;;8.94;84.51;102925.75;5017139;28;20046;-83
2023/12/16 11:28:35;;;;;;;10.88;3.10;;;;;;;8.97;84.26;102931.09;5009237;28;20045;-84
2023/12/16 11:31:10;;;;;;;9.73;2.63;;;;;;;8.99;83.99;102925.94;5018294;28;20058;-83
2023/12/16 11:34:18;;;;;;;12.68;3.80;;;;;;;9.03;83.85;102917.34;5026392;28;20181;-84